Time;durP1;ratioP1;P1;durP2;ratioP2;P2;SDS_P1;SDS_P2;PMS_P1;PMS_P2;Temp;Humidity;BMP_temperature;BMP_pressure;BME280_temperature;BME280_humidity;BME280_pressure;Samples;Min_cycle;Max_cycle;Signal;HPM_P1;HPM_P2
2024/02/04 00:00:01;;;;;;;;;;;;;;;6.40;100.00;100806.38;4908181;29;20282;-82
2024/02/04 00:02:26;;;;;;;;;;;;;;;6.36;100.00;100811.66;4907029;29;19947;-82
2024/02/04 00:04:52;;;;;;;;;;;;;;;6.38;100.00;100802.88;4908569;29;19998;-82
2024/02/04 00:07:17;;;;;;;;;;;;;;;6.33;100.00;100811.72;4908579;29;19950;-81
2024/02/04 00:09:45;;;;;;;;;;;;;;;6.32;100.00;100812.59;4908201;29;19926;-89
2024/02/04 00:12:11;;;;;;;;;;;;;;;6.34;100.00;100805.53;4891448;29;19920;-85
2024/02/04 00:14:36;;;;;;;;;;;;;;;6.36;100.00;100800.25;4908040;29;20390;-82
2024/02/04 00:17:01;;;;;;;;;;;;;;;6.36;100.00;100792.38;4907321;29;19923;-82
2024/02/04 00:19:27;;;;;;;;;;;;;;;6.32;100.00;100793.31;4909161;29;19927;-82
2024/02/04 00:21:52;;;;;;;;;;;;;;;6.41;100.00;100790.56;4908147;29;19920;-81
2024/02/04 00:24:19;;;;;;;;;;;;;;;6.40;100.00;100790.56;4908001;29;19977;-85
2024/02/04 00:26:44;;;;;;;;;;;;;;;6.39;100.00;100783.59;4908366;29;19923;-81
2024/02/04 00:29:09;;;;;;;;;;;;;;;6.36;100.00;100785.34;4908198;29;19930;-80
2024/02/04 00:31:34;;;;;;;;;;;;;;;6.30;100.00;100784.53;4907816;29;19919;-81
2024/02/04 00:34:00;;;;;;;;;;;;;;;6.34;100.00;100792.38;4906779;29;19927;-81
2024/02/04 00:36:26;;;;;;;;;;;;;;;6.32;100.00;100796.78;4908056;29;20009;-82
2024/02/04 00:38:51;;;;;;;;;;;;;;;6.32;100.00;100802.06;4908259;29;19931;-81
2024/02/04 00:41:16;;;;;;;;;;;;;;;6.30;100.00;100801.22;4907623;29;19963;-84
2024/02/04 00:43:41;;;;;;;;;;;;;;;6.33;100.00;100795.03;4907619;29;19925;-83
2024/02/04 00:46:07;;;;;;;;;;;;;;;6.31;100.00;100791.53;4908239;29;19919;-82
2024/02/04 00:48:33;;;;;;;;;;;;;;;6.34;100.00;100799.41;4906641;29;19920;-81
2024/02/04 08:17:53;;;;;;;;;;;;;;;6.30;100.00;100739.78;5036248;23;19927;-80
2024/02/04 08:20:19;;;;;;;;;;;;;;;6.30;100.00;100751.19;4918020;29;19923;-84
2024/02/04 08:22:44;;;;;;;;;;;;;;;6.33;100.00;100758.16;4910369;29;19961;-83
2024/02/04 08:25:11;;;;;;;;;;;;;;;6.30;100.00;100774.00;4925789;29;19923;-82
2024/02/04 08:27:36;;;;;;;;;;;;;;;6.32;100.00;100769.63;4927142;29;19922;-83
2024/02/04 08:30:02;;;;;;;;;;;;;;;6.33;100.00;100763.44;4927554;29;19919;-82
2024/02/04 08:32:27;;;;;;;;;;;;;;;6.36;100.00;100769.53;4925607;29;19923;-83
2024/02/04 08:34:53;;;;;;;;;;;;;;;6.34;100.00;100765.19;4926908;29;19973;-80
2024/02/04 08:37:19;;;;;;;;;;;;;;;6.39;100.00;100773.91;4927118;29;19974;-81
2024/02/04 08:39:44;;;;;;;;;;;;;;;6.33;100.00;100769.59;4927167;29;19923;-82
2024/02/04 08:42:09;;;;;;;;;;;;;;;6.34;100.00;100771.31;4927243;29;19926;-80
2024/02/04 08:44:34;;;;;;;;;;;;;;;6.36;100.00;100760.78;4926827;29;19923;-82
2024/02/04 08:47:00;;;;;;;;;;;;;;;6.34;100.00;100766.06;4925601;29;19918;-83
2024/02/04 08:49:25;;;;;;;;;;;;;;;6.38;100.00;100782.69;4926928;29;19927;-81
2024/02/04 08:51:51;;;;;;;;;;;;;;;6.33;100.00;100774.88;4909353;29;19919;-80
2024/02/04 08:54:17;;;;;;;;;;;;;;;6.40;100.00;100769.50;4926285;29;19923;-80
2024/02/04 08:56:42;;;;;;;;;;;;;;;6.34;100.00;100770.47;4925387;29;20370;-84
2024/02/04 08:59:08;;;;;;;;;;;;;;;6.38;100.00;100766.88;4926496;29;19961;-84
2024/02/04 09:01:33;;;;;;;;;;;;;;;6.36;100.00;100780.06;4925702;29;19970;-84
2024/02/04 09:03:58;;;;;;;;;;;;;;;6.36;100.00;100780.06;4925754;29;20404;-84
2024/02/04 09:06:24;;;;;;;;;;;;;;;6.35;100.00;100773.06;4927198;29;19922;-87
2024/02/04 09:08:49;;;;;;;;;;;;;;;6.40;100.00;100766.88;4926394;29;19923;-90
2024/02/04 09:11:18;;;;;;;;;;;;;;;6.36;100.00;100772.16;4908731;29;19938;-84
2024/02/04 09:13:44;;;;;;;;;;;;;;;6.39;100.00;100767.78;4926892;29;19923;-83
2024/02/04 09:16:09;;;;;;;;;;;;;;;6.42;100.00;100770.38;4925026;29;20363;-89
2024/02/04 09:18:35;;;;;;;;;;;;;;;6.36;100.00;100774.81;4908518;29;20331;-83
2024/02/04 09:21:00;;;;;;;;;;;;;;;6.36;100.00;100769.53;4926091;29;19918;-82
2024/02/04 09:23:26;;;;;;;;;;;;;;;6.38;100.00;100768.66;4926317;29;20276;-84
2024/02/04 09:25:51;;;;;;;;;;;;;;;6.41;100.00;100766.00;4926292;29;19919;-89
2024/02/04 09:28:16;;;;;;;;;;;;;;;6.39;100.00;100776.53;4925939;29;19922;-82
2024/02/04 09:30:41;;;;;;;;;;;;;;;6.40;100.00;100778.31;4924683;29;19919;-86
2024/02/04 09:33:08;;;;;;;;;;;;;;;6.47;100.00;100768.56;4925634;29;20490;-85
2024/02/04 09:35:33;;;;;;;;;;;;;;;6.44;100.00;100768.59;4926008;29;19925;-86
2024/02/04 09:37:59;;;;;;;;;;;;;;;6.50;100.00;100750.13;4925617;29;20014;-83
2024/02/04 09:40:24;;;;;;;;;;;;;;;6.53;100.00;100763.25;4925984;29;19949;-82
2024/02/04 09:42:51;;;;;;;;;;;;;;;6.48;100.00;100759.81;4926058;29;19926;-86
2024/02/04 09:45:17;;;;;;;;;;;;;;;6.52;100.00;100758.84;4908138;29;19919;-84
2024/02/04 09:47:44;;;;;;;;;;;;;;;6.52;100.00;100759.72;4924299;29;20397;-81
2024/02/04 09:50:09;;;;;;;;;;;;;;;6.48;100.00;100762.44;4908601;29;20030;-82
2024/02/04 09:52:39;;;;;;;;;;;;;;;6.44;100.00;100755.44;4925355;29;20430;-85
2024/02/04 09:55:05;;;;;;;;;;;;;;;6.33;100.00;100755.53;4925617;29;20341;-82
2024/02/04 09:57:31;;;;;;;;;;;;;;;6.37;100.00;100759.91;4925470;29;19919;-85
2024/02/04 09:59:57;;;;;;;;;;;;;;;6.34;100.00;100752.03;4925869;29;19918;-86
2024/02/04 10:02:23;;;;;;;;;;;;;;;6.41;100.00;100755.47;4924338;29;20240;-84
2024/02/04 10:04:48;;;;;;;;;;;;;;;6.45;100.00;100768.59;4924571;29;19962;-83
2024/02/04 10:07:14;;;;;;;;;;;;;;;6.48;100.00;100776.47;4925344;29;20430;-83
2024/02/04 10:09:39;;;;;;;;;;;;;;;6.50;100.00;100779.94;4925511;29;19923;-83
2024/02/04 10:12:05;;;;;;;;;;;;;;;6.43;100.00;100780.91;4925303;29;19969;-81
2024/02/04 10:14:31;;;;;;;;;;;;;;;6.43;100.00;100775.63;4925463;29;20461;-81
2024/02/04 10:16:56;;;;;;;;;;;;;;;6.47;100.00;100771.22;4924079;29;19919;-81
2024/02/04 10:19:24;;;;;;;;;;;;;;;6.44;100.00;100773.88;4925514;29;20301;-82
2024/02/04 10:21:57;;;;;;;;;;;;;;;6.46;100.00;100777.34;4924192;29;20294;-83
2024/02/04 10:24:23;;;;;;;;;;;;;;;6.45;100.00;100780.88;4924971;29;20367;-84
2024/02/04 10:26:48;;;;;;;;;;;;;;;6.45;100.00;100767.72;4925682;29;19926;-81
2024/02/04 14:01:04;;;;;;;;;;;;;;;6.53;100.00;100650.88;5098570;23;19938;-87
2024/02/04 14:03:29;;;;;;;;;;;;;;;6.52;100.00;100653.53;4925641;29;20298;-84
2024/02/04 14:05:55;;;;;;;;;;;;;;;6.47;100.00;100655.34;4909608;29;19930;-81
2024/02/04 14:08:20;;;;;;;;;;;;;;;6.46;100.00;100653.59;4925771;29;19922;-83
2024/02/04 14:10:46;;;;;;;;;;;;;;;6.48;100.00;100647.44;4908563;29;19973;-82
2024/02/04 14:13:12;;;;;;;;;;;;;;;6.49;100.00;100653.56;4925394;29;20355;-86
2024/02/04 14:15:37;;;;;;;;;;;;;;;6.49;100.00;100653.56;4924577;29;19950;-86
2024/02/04 14:18:02;;;;;;;;;;;;;;;6.56;100.00;100649.97;4925589;29;20379;-88
2024/02/04 14:20:27;;;;;;;;;;;;;;;6.52;100.00;100648.25;4907911;29;19945;-86
2024/02/04 14:22:53;;;;;;;;;;;;;;;6.51;100.00;100654.41;4924739;29;19923;-83
2024/02/04 14:25:18;;;;;;;;;;;;;;;7.58;100.00;100651.13;4908119;29;19934;-76
2024/02/04 14:27:44;;;;;;;;;;;;;;;8.37;100.00;100666.41;4926010;29;19922;-89
2024/02/04 14:30:09;;;;;;;;;;;;;;;7.57;100.00;100654.66;4924347;29;19919;-89
2024/02/04 14:32:34;;;;;;;;;;;;;;;7.27;100.00;100656.88;4925567;29;20021;-88
2024/02/04 14:35:00;;;;;;;;;;;;;;;7.14;100.00;100656.22;4926716;29;20429;-89
2024/02/04 14:37:25;;;;;;;;;;;;;;;7.01;100.00;100652.88;4925078;29;19930;-86
2024/02/04 14:39:51;;;;;;;;;;;;;;;6.96;100.00;100649.44;4926555;29;19931;-91
2024/02/04 14:42:18;;;;;;;;;;;;;;;6.96;100.00;100654.72;4927441;29;19958;-86
2024/02/04 14:44:43;;;;;;;;;;;;;;;6.93;100.00;100649.50;4930573;29;20026;-90
2024/02/04 14:47:09;;;;;;;;;;;;;;;6.74;100.00;100656.78;4924527;29;20088;-86
2024/02/04 14:49:35;;;;;;;;;;;;;;;6.87;100.00;100636.41;4925962;29;19927;-89
2024/02/04 14:52:00;;;;;;;;;;;;;;;6.81;100.00;100640.00;4924755;29;19931;-90
2024/02/04 14:54:27;;;;;;;;;;;;;;;6.77;100.00;100640.06;4924859;29;19927;-89
2024/02/04 14:56:52;;;;;;;;;;;;;;;6.77;100.00;100637.44;4928018;29;19926;-88
2024/02/04 14:59:18;;;;;;;;;;;;;;;6.81;100.00;100644.38;4928393;29;19971;-90
2024/02/04 15:01:46;;;;;;;;;;;;;;;6.80;100.00;100638.25;4928846;29;20704;-89
2024/02/04 15:04:13;;;;;;;;;;;;;;;6.70;100.00;100631.34;4928038;29;20374;-88
2024/02/04 15:06:38;;;;;;;;;;;;;;;6.84;100.00;100637.28;4911189;29;19962;-84
2024/02/04 15:09:03;;;;;;;;;;;;;;;6.82;100.00;100647.00;4929708;29;19958;-86
2024/02/04 15:11:29;;;;;;;;;;;;;;;6.82;100.00;100648.75;4929407;29;19923;-87
2024/02/04 15:13:55;;;;;;;;;;;;;;;6.79;100.00;100644.41;4909280;29;20018;-86
2024/02/04 15:16:20;;;;;;;;;;;;;;;6.76;100.00;100636.53;4927668;29;20358;-87
2024/02/04 15:18:46;;;;;;;;;;;;;;;6.70;100.00;100639.25;4928608;29;19919;-90
2024/02/04 15:21:11;;;;;;;;;;;;;;;6.80;100.00;100643.53;4911319;29;20290;-86
2024/02/04 15:23:37;;;;;;;;;;;;;;;6.79;100.00;100651.44;4926563;29;19923;-83
2024/02/04 15:26:03;;;;;;;;;;;;;;;6.78;100.00;100633.88;4929468;29;19927;-90
2024/02/04 15:28:29;;;;;;;;;;;;;;;6.77;100.00;100642.69;4928576;29;19930;-89
2024/02/04 15:30:55;;;;;;;;;;;;;;;6.78;100.00;100641.78;4927209;29;19927;-87
2024/02/04 15:33:20;;;;;;;;;;;;;;;6.75;100.00;100645.34;4910918;29;19968;-91
2024/02/04 15:35:46;;;;;;;;;;;;;;;6.78;100.00;100645.31;4927819;29;20010;-88
2024/02/04 15:38:11;;;;;;;;;;;;;;;6.85;100.00;100641.69;4928226;29;20070;-84
2024/02/04 15:40:36;;;;;;;;;;;;;;;6.86;100.00;100639.91;4928525;29;19933;-81
2024/02/04 15:43:02;;;;;;;;;;;;;;;6.75;100.00;100639.19;4927851;29;19920;-84
2024/02/04 15:45:27;;;;;;;;;;;;;;;6.71;100.00;100638.38;4926766;29;19974;-84
2024/02/04 15:47:53;;;;;;;;;;;;;;;6.76;100.00;100649.72;4929012;29;20017;-79
2024/02/04 15:50:19;;;;;;;;;;;;;;;6.76;100.00;100643.56;4928103;29;19981;-90
2024/02/04 15:52:45;;;;;;;;;;;;;;;6.73;100.00;100640.09;4910608;29;19978;-88
2024/02/04 15:55:10;;;;;;;;;;;;;;;6.68;100.00;100643.69;4927671;29;19945;-79
2024/02/04 15:57:37;;;;;;;;;;;;;;;6.69;100.00;100646.28;4927902;29;19929;-81
2024/02/04 16:00:11;;;;;;;;;;;;;;;6.70;100.00;100644.53;4927280;29;20274;-81
2024/02/04 16:02:36;;;;;;;;;;;;;;;6.79;100.00;100646.19;4927904;29;19951;-78
2024/02/04 16:05:02;;;;;;;;;;;;;;;6.77;100.00;100643.56;4928064;29;20335;-80
2024/02/04 16:07:27;;;;;;;;;;;;;;;6.74;100.00;100643.59;4909644;29;19974;-84
2024/02/04 16:09:52;;;;;;;;;;;;;;;6.75;100.00;100640.09;4928898;29;19920;-85
2024/02/04 16:12:19;;;;;;;;;;;;;;;6.71;100.00;100641.88;4928846;29;19926;-88
2024/02/04 16:14:46;;;;;;;;;;;;;;;6.76;100.00;100644.44;4926002;29;19970;-85
2024/02/04 16:17:12;;;;;;;;;;;;;;;6.72;100.00;100646.25;4911335;29;19923;-84
2024/02/04 16:19:42;;;;;;;;;;;;;;;6.66;100.00;100645.47;4926705;29;19920;-85
2024/02/04 16:22:08;;;;;;;;;;;;;;;6.68;100.00;100648.94;4927118;29;19931;-88
2024/02/04 16:24:33;;;;;;;;;;;;;;;6.68;100.00;100654.22;4927122;29;20276;-83
2024/02/04 16:26:58;;;;;;;;;;;;;;;6.76;100.00;100654.13;4926889;29;19923;-88
2024/02/04 16:29:27;;;;;;;;;;;;;;;6.71;100.00;100655.03;4926587;29;19927;-88
2024/02/04 16:31:53;;;;;;;;;;;;;;;6.69;100.00;100662.09;4927824;29;19919;-86
2024/02/04 16:34:18;;;;;;;;;;;;;;;6.67;100.00;100660.34;4928388;29;19934;-87
2024/02/04 16:36:44;;;;;;;;;;;;;;;6.78;100.00;100662.84;4928063;29;19983;-88
2024/02/04 16:39:09;;;;;;;;;;;;;;;6.74;100.00;100664.66;4927342;29;19923;-84
2024/02/04 16:41:36;;;;;;;;;;;;;;;6.83;100.00;100667.19;4926707;29;20018;-82
2024/02/04 16:44:02;;;;;;;;;;;;;;;6.77;100.00;100669.03;4926645;29;19951;-87
2024/02/04 16:46:28;;;;;;;;;;;;;;;6.77;100.00;100662.00;4926981;29;19967;-80
2024/02/04 16:48:53;;;;;;;;;;;;;;;6.79;100.00;100672.50;4927085;29;20382;-80
2024/02/04 16:51:18;;;;;;;;;;;;;;;6.78;100.00;100662.84;4926064;29;19934;-84
2024/02/04 16:53:45;;;;;;;;;;;;;;;6.77;100.00;100664.63;4927597;29;20002;-88
2024/02/04 16:56:10;;;;;;;;;;;;;;;6.80;100.00;100666.38;4927396;29;19966;-88
2024/02/04 16:58:36;;;;;;;;;;;;;;;6.71;100.00;100652.41;4932696;29;19941;-84
2024/02/04 17:01:01;;;;;;;;;;;;;;;6.78;100.00;100652.31;4925831;29;19927;-81
2024/02/04 17:03:26;;;;;;;;;;;;;;;6.83;100.00;100663.66;4927326;29;20009;-85
2024/02/04 17:05:52;;;;;;;;;;;;;;;6.76;100.00;100659.38;4926211;29;19925;-89
2024/02/04 17:08:17;;;;;;;;;;;;;;;6.83;100.00;100658.41;4929543;29;19961;-86
2024/02/04 17:10:42;;;;;;;;;;;;;;;6.86;100.00;100659.25;4927078;29;19942;-81
2024/02/04 17:13:08;;;;;;;;;;;;;;;6.75;100.00;100661.16;4926751;29;19926;-84
2024/02/04 17:15:33;;;;;;;;;;;;;;;6.81;100.00;100676.00;4925538;29;19931;-87
2024/02/04 17:18:02;;;;;;;;;;;;;;;6.85;100.00;100673.31;4926771;29;19947;-83
2024/02/04 17:20:31;;;;;;;;;;;;;;;6.82;100.00;100673.34;4927292;29;19926;-81
2024/02/04 17:23:06;;;;;;;;;;;;;;;6.66;100.00;100679.72;4925353;29;19926;-82
2024/02/04 17:25:35;;;;;;;;;;;;;;;6.75;100.00;100681.34;4926358;29;19927;-82
2024/02/04 17:28:04;;;;;;;;;;;;;;;6.77;100.00;100675.16;4927905;29;19922;-81
2024/02/04 17:30:31;;;;;;;;;;;;;;;6.78;100.00;100681.28;4926211;29;19922;-81
2024/02/04 17:32:57;;;;;;;;;;;;;;;6.79;100.00;100685.69;4908494;29;19923;-82
2024/02/04 17:35:23;;;;;;;;;;;;;;;6.80;100.00;100679.53;4925628;29;19934;-81
2024/02/04 17:37:49;;;;;;;;;;;;;;;6.70;100.00;100677.00;4925616;29;20000;-88
2024/02/04 17:40:15;;;;;;;;;;;;;;;6.80;100.00;100680.41;4925966;29;19931;-84
2024/02/04 17:42:40;;;;;;;;;;;;;;;6.82;100.00;100678.59;4927752;29;19965;-90
2024/02/04 17:45:08;;;;;;;;;;;;;;;6.82;100.00;100689.16;4908339;29;19923;-85
2024/02/04 17:47:34;;;;;;;;;;;;;;;6.73;100.00;100690.16;4925353;29;20021;-85
2024/02/04 17:50:00;;;;;;;;;;;;;;;6.73;100.00;100700.69;4926771;29;20010;-88
2024/02/04 17:52:26;;;;;;;;;;;;;;;6.84;100.00;100695.25;4925809;29;19920;-84
2024/02/04 17:54:53;;;;;;;;;;;;;;;6.84;100.00;100697.88;4925660;29;19930;-82
2024/02/04 17:57:18;;;;;;;;;;;;;;;6.90;100.00;100694.31;4925728;29;20382;-82
2024/02/04 17:59:44;;;;;;;;;;;;;;;6.88;100.00;100694.34;4924465;29;19938;-83
2024/02/04 18:02:09;;;;;;;;;;;;;;;6.85;100.00;100690.88;4925173;29;19929;-85
2024/02/04 18:04:34;;;;;;;;;;;;;;;6.94;100.00;100693.41;4925797;29;19930;-83
2024/02/04 18:07:00;;;;;;;;;;;;;;;6.80;100.00;100685.66;4926612;29;19974;-87
2024/02/04 18:09:27;;;;;;;;;;;;;;;6.81;100.00;100697.06;4926047;29;19926;-80
2024/02/04 18:11:53;;;;;;;;;;;;;;;6.84;100.00;100689.13;4927439;29;19933;-83
2024/02/04 18:14:18;;;;;;;;;;;;;;;6.85;100.00;100694.38;4925466;29;19923;-88
2024/02/04 18:16:43;;;;;;;;;;;;;;;6.86;100.00;100689.97;4924888;29;19919;-87
2024/02/04 18:19:09;;;;;;;;;;;;;;;6.78;100.00;100676.03;4925225;29;19923;-87
2024/02/04 18:21:34;;;;;;;;;;;;;;;6.85;100.00;100677.72;4925441;29;20025;-87
2024/02/04 18:24:01;;;;;;;;;;;;;;;6.79;100.00;100680.41;4925834;29;20290;-84
2024/02/04 18:26:26;;;;;;;;;;;;;;;6.84;100.00;100681.22;4924834;29;19934;-83
2024/02/04 18:28:52;;;;;;;;;;;;;;;6.75;100.00;100682.22;4909455;29;19923;-80
2024/02/04 18:31:18;;;;;;;;;;;;;;;6.83;100.00;100679.47;4925609;29;20013;-87
2024/02/04 18:33:45;;;;;;;;;;;;;;;6.83;100.00;100674.19;4928525;29;19949;-85
2024/02/04 18:36:13;;;;;;;;;;;;;;;6.77;100.00;100676.94;4929358;29;19927;-86
2024/02/04 18:38:39;;;;;;;;;;;;;;;6.82;100.00;100672.47;4933684;29;19922;-90
2024/02/04 18:41:11;;;;;;;;;;;;;;;6.82;100.00;100677.75;4932699;29;20491;-89
2024/02/04 18:43:36;;;;;;;;;;;;;;;6.83;100.00;100669.81;4928485;29;19923;-89
2024/02/04 18:46:02;;;;;;;;;;;;;;;6.85;100.00;100672.44;4928628;29;20317;-90
2024/02/04 18:48:27;;;;;;;;;;;;;;;6.80;100.00;100674.28;4928000;29;19934;-86
2024/02/04 18:50:52;;;;;;;;;;;;;;;6.89;100.00;100671.47;4930023;29;20435;-85
2024/02/04 18:53:17;;;;;;;;;;;;;;;6.83;100.00;100668.94;4928820;29;19922;-86
2024/02/04 18:55:43;;;;;;;;;;;;;;;6.78;100.00;100668.13;4929819;29;19923;-83
2024/02/04 18:58:08;;;;;;;;;;;;;;;6.76;100.00;100670.78;4929748;29;19957;-84
2024/02/04 19:00:33;;;;;;;;;;;;;;;6.75;100.00;100670.81;4928088;29;19927;-90
2024/02/04 19:02:59;;;;;;;;;;;;;;;6.80;100.00;100659.31;4927865;29;19926;-92
2024/02/04 19:05:24;;;;;;;;;;;;;;;6.89;100.00;100661.84;4935172;29;19953;-91
2024/02/04 19:07:50;;;;;;;;;;;;;;;6.75;100.00;100661.16;4932981;29;19926;-89
2024/02/04 19:10:16;;;;;;;;;;;;;;;6.87;100.00;100668.00;4929471;29;19918;-85
2024/02/04 19:12:41;;;;;;;;;;;;;;;6.82;100.00;100662.81;4927860;29;20327;-83
2024/02/04 19:15:07;;;;;;;;;;;;;;;6.78;100.00;100670.75;4927420;29;20271;-84
2024/02/04 19:17:34;;;;;;;;;;;;;;;6.86;100.00;100669.78;4928577;29;19927;-85
2024/02/04 19:19:59;;;;;;;;;;;;;;;6.88;100.00;100656.59;4928823;29;19946;-84
2024/02/04 19:22:29;;;;;;;;;;;;;;;6.84;100.00;100660.16;4928701;29;19919;-90
2024/02/04 19:24:54;;;;;;;;;;;;;;;6.85;100.00;100656.63;4928898;29;19930;-82
2024/02/04 19:27:20;;;;;;;;;;;;;;;6.89;100.00;100653.03;4928483;29;19923;-81
2024/02/04 19:29:46;;;;;;;;;;;;;;;6.86;100.00;100664.50;4927634;29;20248;-83
2024/02/04 19:32:11;;;;;;;;;;;;;;;6.84;100.00;100660.16;4924893;29;20054;-82
2024/02/04 19:34:37;;;;;;;;;;;;;;;6.89;100.00;100658.31;4927468;29;19919;-80
2024/02/04 19:37:02;;;;;;;;;;;;;;;6.89;100.00;100656.56;4929370;29;19931;-80
2024/02/04 19:39:27;;;;;;;;;;;;;;;6.86;100.00;100653.09;4928425;29;19919;-82
2024/02/04 19:41:53;;;;;;;;;;;;;;;6.95;100.00;100652.09;4928723;29;19919;-83
2024/02/04 19:44:18;;;;;;;;;;;;;;;6.93;100.00;100644.22;4926548;29;19966;-86
2024/02/04 19:46:43;;;;;;;;;;;;;;;6.94;100.00;100642.44;4928075;29;19931;-89
2024/02/04 19:49:10;;;;;;;;;;;;;;;6.85;100.00;100648.72;4930566;29;19923;-84
2024/02/04 19:51:35;;;;;;;;;;;;;;;6.87;100.00;100649.56;4931639;29;19951;-87
2024/02/04 19:54:01;;;;;;;;;;;;;;;6.92;100.00;100653.00;4927178;29;20286;-86
2024/02/04 19:56:26;;;;;;;;;;;;;;;6.96;100.00;100654.72;4926356;29;20323;-84
2024/02/04 19:58:51;;;;;;;;;;;;;;;6.84;100.00;100650.47;4925936;29;19930;-91
2024/02/04 20:01:17;;;;;;;;;;;;;;;6.87;100.00;100654.84;4926712;29;19930;-85
2024/02/04 20:03:42;;;;;;;;;;;;;;;6.93;100.00;100646.00;4927810;29;19974;-87
2024/02/04 20:06:07;;;;;;;;;;;;;;;6.85;100.00;100654.84;4929266;29;19925;-89
2024/02/04 20:08:32;;;;;;;;;;;;;;;6.82;100.00;100652.25;4927651;29;20005;-88
2024/02/04 20:10:58;;;;;;;;;;;;;;;6.89;100.00;100642.50;4911026;29;19919;-87
2024/02/04 20:13:26;;;;;;;;;;;;;;;6.99;100.00;100644.13;4928143;29;19923;-86
2024/02/04 20:15:52;;;;;;;;;;;;;;;6.92;100.00;100642.47;4925184;29;19930;-88
2024/02/04 20:18:20;;;;;;;;;;;;;;;6.91;100.00;100633.69;4923773;29;19931;-87
2024/02/04 20:20:45;;;;;;;;;;;;;;;6.94;100.00;100640.69;4926952;29;19927;-88
2024/02/04 20:23:10;;;;;;;;;;;;;;;6.87;100.00;100639.03;4928316;29;20374;-86
2024/02/04 20:25:37;;;;;;;;;;;;;;;6.87;100.00;100632.00;4929069;29;19930;-82
2024/02/04 20:28:03;;;;;;;;;;;;;;;6.86;100.00;100637.28;4928725;29;19922;-94
2024/02/04 20:30:28;;;;;;;;;;;;;;;6.91;100.00;100646.00;4927178;29;19934;-85
2024/02/04 20:32:53;;;;;;;;;;;;;;;6.82;100.00;100644.34;4931724;29;20365;-83
2024/02/04 20:35:20;;;;;;;;;;;;;;;6.88;100.00;100641.66;4912693;29;19930;-83
2024/02/04 20:37:45;;;;;;;;;;;;;;;6.90;100.00;100633.72;4928199;29;19971;-83
2024/02/04 20:40:11;;;;;;;;;;;;;;;6.86;100.00;100637.28;4928321;29;19919;-86
2024/02/04 20:42:39;;;;;;;;;;;;;;;6.85;100.00;100635.56;4934638;29;19954;-92
2024/02/04 20:45:04;;;;;;;;;;;;;;;6.91;100.00;100628.44;4929381;29;20418;-94
2024/02/04 20:47:30;;;;;;;;;;;;;;;6.88;100.00;100631.09;4932980;29;19919;-91
2024/02/04 20:49:55;;;;;;;;;;;;;;;6.88;100.00;100631.09;4926879;29;19923;-88
2024/02/04 20:52:20;;;;;;;;;;;;;;;6.89;100.00;100626.69;4928993;29;19925;-90
2024/02/04 20:54:46;;;;;;;;;;;;;;;6.88;100.00;100624.97;4928094;29;19925;-92
2024/02/04 20:57:11;;;;;;;;;;;;;;;6.97;100.00;100629.22;4914218;29;19974;-91
2024/02/04 20:59:36;;;;;;;;;;;;;;;6.86;100.00;100624.09;4929351;29;20049;-88
2024/02/04 21:02:02;;;;;;;;;;;;;;;6.93;100.00;100617.00;4928862;29;20016;-82
2024/02/04 21:04:27;;;;;;;;;;;;;;;6.93;100.00;100623.13;4928577;29;20456;-85
2024/02/04 21:06:52;;;;;;;;;;;;;;;6.95;100.00;100617.84;4930397;29;19923;-86
2024/02/04 21:09:18;;;;;;;;;;;;;;;6.90;100.00;100621.41;4928782;29;19962;-89
2024/02/04 21:11:43;;;;;;;;;;;;;;;6.94;100.00;100631.91;4908262;29;20423;-90
2024/02/04 21:14:08;;;;;;;;;;;;;;;6.99;100.00;100630.06;4924785;29;20457;-91
2024/02/04 21:16:34;;;;;;;;;;;;;;;6.94;100.00;100630.16;4925931;29;19942;-81
2024/02/04 21:19:01;;;;;;;;;;;;;;;6.86;100.00;100627.63;4927506;29;19919;-90
2024/02/04 21:21:26;;;;;;;;;;;;;;;6.93;100.00;100633.69;4927432;29;19954;-88
2024/02/04 21:23:51;;;;;;;;;;;;;;;6.95;100.00;100637.16;4923510;29;20409;-84
2024/02/04 21:26:17;;;;;;;;;;;;;;;6.88;100.00;100639.00;4927924;29;20019;-93
2024/02/04 21:28:43;;;;;;;;;;;;;;;6.89;100.00;100631.97;4928182;29;19927;-88
2024/02/04 21:31:08;;;;;;;;;;;;;;;6.87;100.00;100633.75;4928172;29;19918;-84
2024/02/04 21:33:34;;;;;;;;;;;;;;;6.95;100.00;100637.16;4925649;29;19919;-89
2024/02/04 21:36:00;;;;;;;;;;;;;;;7.01;100.00;100638.84;4926586;29;19930;-85
2024/02/04 21:38:25;;;;;;;;;;;;;;;6.99;100.00;100638.88;4927403;29;19919;-93
2024/02/04 21:40:50;;;;;;;;;;;;;;;6.96;100.00;100638.91;4928293;29;20075;-91
2024/02/04 21:43:16;;;;;;;;;;;;;;;6.92;100.00;100634.56;4930551;29;19973;-89
2024/02/04 21:45:41;;;;;;;;;;;;;;;6.96;100.00;100633.63;4926230;29;20370;-89
2024/02/04 21:48:07;;;;;;;;;;;;;;;6.92;100.00;100634.56;4926713;29;19919;-92
2024/02/04 21:50:35;;;;;;;;;;;;;;;6.91;100.00;100635.47;4928960;29;19982;-89
2024/02/04 21:53:04;;;;;;;;;;;;;;;6.94;100.00;100635.44;4927759;29;19966;-95
2024/02/04 21:55:30;;;;;;;;;;;;;;;6.91;100.00;100636.34;4926324;29;19954;-89
2024/02/04 21:57:55;;;;;;;;;;;;;;;6.87;100.00;100633.75;4926218;29;20311;-90
2024/02/04 22:00:20;;;;;;;;;;;;;;;6.96;100.00;100627.50;4926544;29;20362;-86
2024/02/04 22:02:46;;;;;;;;;;;;;;;6.94;100.00;100635.44;4926668;29;19919;-93
2024/02/04 22:05:12;;;;;;;;;;;;;;;6.93;100.00;100625.78;4926970;29;20335;-90
2024/02/04 22:07:37;;;;;;;;;;;;;;;6.87;100.00;100618.81;4929388;29;19918;-93
2024/02/04 22:10:02;;;;;;;;;;;;;;;6.91;100.00;100627.56;4917404;29;19922;-92
2024/02/04 22:12:27;;;;;;;;;;;;;;;6.98;100.00;100626.56;4928450;29;19919;-93
